Time;durP1;ratioP1;P1;durP2;ratioP2;P2;SDS_P1;SDS_P2;PMS_P1;PMS_P2;Temp;Humidity;BMP_temperature;BMP_pressure;BME280_temperature;BME280_humidity;BME280_pressure;Samples;Min_cycle;Max_cycle;Signal;HPM_P1;HPM_P2
2022/12/17 13:06:41;;;;;;;55.88;25.83;;;-3.30;99.90;;;;;;4952284;28;20093;-75
2022/12/17 13:09:16;;;;;;;58.60;27.08;;;-3.20;99.90;;;;;;4952881;28;20027;-76
2022/12/17 13:12:01;;;;;;;72.90;30.55;;;-3.30;99.90;;;;;;4950122;28;20082;-76
2022/12/17 13:14:32;;;;;;;66.88;28.55;;;-3.40;99.90;;;;;;4950987;28;20026;-76
2022/12/17 13:17:19;;;;;;;65.53;27.67;;;-3.40;99.90;;;;;;4960052;28;20070;-77
2022/12/17 13:20:30;;;;;;;63.22;27.38;;;-3.40;99.90;;;;;;4955981;28;20027;-77
2022/12/17 13:23:05;;;;;;;61.80;26.80;;;-3.50;99.90;;;;;;4942930;28;20039;-76
2022/12/17 13:25:37;;;;;;;64.38;28.42;;;-3.60;99.90;;;;;;4948033;28;20027;-76
2022/12/17 13:28:02;;;;;;;60.58;26.60;;;-3.70;99.90;;;;;;4947161;28;20106;-77
2022/12/17 13:30:36;;;;;;;65.43;27.80;;;-3.80;99.90;;;;;;4949121;28;21504;-77
2022/12/17 13:33:13;;;;;;;63.97;27.88;;;-3.90;99.90;;;;;;4951319;28;20070;-77
2022/12/17 13:35:59;;;;;;;69.68;29.65;;;-3.90;99.90;;;;;;4951707;28;20146;-77
2022/12/17 13:38:56;;;;;;;67.55;29.00;;;-3.90;99.90;;;;;;4954864;28;20109;-78
2022/12/17 13:41:35;;;;;;;72.25;29.65;;;-3.90;99.90;;;;;;4951500;28;20055;-79
2022/12/17 13:44:23;;;;;;;71.60;28.27;;;-4.00;99.90;;;;;;4952428;28;20058;-78
2022/12/17 13:46:53;;;;;;;70.82;28.23;;;-3.90;99.90;;;;;;4948943;28;20066;-77
2022/12/17 13:49:20;;;;;;;75.63;30.58;;;-3.90;99.90;;;;;;4954337;28;20157;-78
2022/12/17 13:51:46;;;;;;;67.50;29.33;;;-3.90;99.90;;;;;;4950924;28;20023;-78
2022/12/17 13:54:18;;;;;;;71.70;30.73;;;-4.00;99.90;;;;;;4958923;28;20027;-78
2022/12/17 13:56:44;;;;;;;65.90;29.60;;;-4.00;99.90;;;;;;4956486;28;20487;-78
2022/12/17 13:59:19;;;;;;;70.55;30.13;;;-4.10;99.90;;;;;;4948887;28;20503;-78
2022/12/17 14:01:50;;;;;;;75.55;32.17;;;-4.10;99.90;;;;;;4954397;28;20023;-78
2022/12/17 14:04:24;;;;;;;78.03;32.60;;;-4.20;99.90;;;;;;4955152;28;20019;-78
2022/12/17 14:06:57;;;;;;;79.68;31.73;;;-4.30;99.90;;;;;;4954660;28;20401;-78
2022/12/17 14:09:43;;;;;;;74.13;31.13;;;-4.30;99.90;;;;;;4971122;28;20062;-78
2022/12/17 14:12:21;;;;;;;75.93;30.25;;;-4.30;99.90;;;;;;4956998;28;20415;-77
2022/12/17 14:15:01;;;;;;;89.03;31.15;;;-4.40;99.90;;;;;;4955523;28;20016;-78
2022/12/17 14:17:45;;;;;;;86.95;31.42;;;-4.50;99.90;;;;;;4955517;28;20038;-78
2022/12/17 14:20:33;;;;;;;78.18;30.75;;;-4.50;99.90;;;;;;4953766;28;20103;-78
2022/12/17 14:23:05;;;;;;;78.72;31.40;;;-4.50;99.90;;;;;;4954168;28;20096;-78
2022/12/17 14:25:39;;;;;;;86.35;33.20;;;-4.60;99.90;;;;;;4955696;28;20400;-78
2022/12/17 14:28:32;;;;;;;78.93;30.60;;;-4.50;99.90;;;;;;4954672;28;20113;-78
2022/12/17 14:31:13;;;;;;;76.28;31.90;;;-4.50;99.90;;;;;;4954256;28;20027;-78
2022/12/17 14:33:39;;;;;;;75.07;32.58;;;-4.50;99.90;;;;;;4954253;28;20031;-78
2022/12/17 14:36:26;;;;;;;73.85;30.15;;;-4.50;99.90;;;;;;4955497;28;20051;-78
2022/12/17 14:39:00;;;;;;;80.95;33.17;;;-4.40;99.90;;;;;;4952288;28;20023;-78
2022/12/17 14:44:30;;;;;;;85.30;34.33;;;-4.40;99.90;;;;;;4957315;28;20035;-77
2022/12/17 14:47:24;;;;;;;90.28;34.42;;;-4.50;99.90;;;;;;4954282;28;20407;-78
2022/12/17 14:49:49;;;;;;;90.00;36.42;;;-4.50;99.90;;;;;;4951251;28;20024;-78
2022/12/17 14:52:24;;;;;;;90.53;35.95;;;-4.50;99.90;;;;;;4955889;28;20043;-77
2022/12/17 14:54:50;;;;;;;90.40;34.05;;;-4.50;99.90;;;;;;4954133;28;20047;-78
2022/12/17 14:57:20;;;;;;;85.22;35.15;;;-4.50;99.90;;;;;;4951347;28;20039;-78
2022/12/17 14:59:47;;;;;;;95.00;37.70;;;-4.50;99.90;;;;;;4953364;28;20031;-78
2022/12/17 15:02:33;;;;;;;89.53;35.60;;;-4.50;99.90;;;;;;4955149;28;20045;-78
2022/12/17 15:05:01;;;;;;;91.45;36.35;;;-4.50;99.90;;;;;;4951995;28;20105;-78
2022/12/17 15:07:29;;;;;;;95.10;36.95;;;-4.50;99.90;;;;;;4955472;28;20101;-77
2022/12/17 15:10:07;;;;;;;92.70;34.83;;;-4.50;99.90;;;;;;4955566;28;20039;-77
2022/12/17 15:12:33;;;;;;;90.25;37.15;;;-4.60;99.90;;;;;;4954876;28;20432;-78
2022/12/17 15:15:01;;;;;;;94.63;35.53;;;-4.60;99.90;;;;;;4951866;28;20027;-78
2022/12/17 15:17:33;;;;;;;91.82;38.08;;;-4.70;99.90;;;;;;4956756;28;20027;-77
2022/12/17 15:19:59;;;;;;;87.00;34.33;;;-4.70;99.90;;;;;;4958071;28;20080;-78
2022/12/17 15:22:36;;;;;;;96.85;34.78;;;-4.70;99.90;;;;;;4961019;28;20035;-77
2022/12/17 15:25:02;;;;;;;92.25;36.22;;;-4.80;99.90;;;;;;4959171;28;20031;-78
2022/12/17 15:27:30;;;;;;;96.78;35.95;;;-4.80;99.90;;;;;;4959536;28;20031;-78
2022/12/17 15:29:56;;;;;;;93.97;35.17;;;-4.80;99.90;;;;;;4957544;28;20027;-77
2022/12/17 15:32:23;;;;;;;91.32;36.47;;;-4.90;99.90;;;;;;4959530;28;20027;-77
2022/12/17 15:34:54;;;;;;;98.95;37.42;;;-4.90;99.90;;;;;;4957099;28;20031;-77
2022/12/17 15:37:26;;;;;;;108.75;39.17;;;-4.90;99.90;;;;;;4959697;28;20560;-77
2022/12/17 15:39:52;;;;;;;109.97;40.35;;;-4.90;99.90;;;;;;4954882;28;20030;-77
2022/12/17 15:45:05;;;;;;;101.10;38.72;;;-4.80;99.90;;;;;;4957021;28;20046;-78
2022/12/17 15:47:30;;;;;;;107.05;39.67;;;-4.70;99.90;;;;;;4958441;28;20082;-80
2022/12/17 15:49:59;;;;;;;100.20;38.85;;;-4.60;99.90;;;;;;4958337;28;20135;-77
2022/12/17 15:52:27;;;;;;;102.30;41.30;;;-4.50;99.90;;;;;;4958912;28;20086;-78
2022/12/17 15:54:56;;;;;;;105.03;41.03;;;-4.50;99.90;;;;;;4959295;28;20027;-77
2022/12/17 15:57:21;;;;;;;99.82;38.40;;;-4.40;99.90;;;;;;4955256;28;20035;-78
2022/12/17 15:59:50;;;;;;;100.15;38.42;;;-4.40;99.90;;;;;;4958855;28;20027;-78
2022/12/17 16:02:16;;;;;;;106.07;41.47;;;-4.30;99.90;;;;;;4959833;28;20034;-77
2022/12/17 16:04:48;;;;;;;105.60;40.47;;;-4.20;99.90;;;;;;4957429;28;20456;-77
2022/12/17 16:07:15;;;;;;;101.18;39.85;;;-4.20;99.90;;;;;;4959493;28;20040;-77
2022/12/17 16:09:40;;;;;;;101.10;40.75;;;-4.10;99.90;;;;;;4958540;28;20023;-77
2022/12/17 16:12:06;;;;;;;102.43;38.40;;;-4.00;99.90;;;;;;4959556;28;20031;-77
2022/12/17 16:14:32;;;;;;;105.13;41.50;;;-3.90;99.90;;;;;;4958189;28;20055;-77
2022/12/17 16:16:57;;;;;;;94.78;38.58;;;-3.80;99.90;;;;;;4953367;28;20031;-77
2022/12/17 16:19:23;;;;;;;96.28;36.78;;;-3.80;99.90;;;;;;4957422;28;20063;-78
2022/12/17 16:21:49;;;;;;;93.30;35.60;;;-3.80;99.90;;;;;;4966540;23;20034;-73
2022/12/17 16:24:14;;;;;;;98.63;38.83;;;-3.70;99.90;;;;;;4965973;28;20515;-74
2022/12/17 16:26:52;;;;;;;100.30;38.88;;;-3.80;99.90;;;;;;4951341;28;20022;-75
2022/12/17 16:29:18;;;;;;;89.93;37.30;;;-3.80;99.90;;;;;;4969086;28;20031;-74
2022/12/17 16:31:48;;;;;;;99.90;39.03;;;-3.80;99.90;;;;;;4951051;28;20437;-74
2022/12/17 16:34:17;;;;;;;94.13;38.67;;;-3.80;99.90;;;;;;4951462;28;20030;-73
2022/12/17 16:36:55;;;;;;;93.63;37.00;;;-3.80;99.90;;;;;;4967364;28;20459;-71
2022/12/17 16:39:20;;;;;;;95.03;36.92;;;-3.90;99.90;;;;;;4946500;28;20023;-70
2022/12/17 16:41:46;;;;;;;96.18;39.65;;;-3.90;99.90;;;;;;4953544;28;20046;-70
2022/12/17 16:44:15;;;;;;;98.43;37.90;;;-3.90;99.90;;;;;;4948999;28;20074;-70
2022/12/17 16:46:41;;;;;;;98.15;37.22;;;-3.90;99.90;;;;;;4953325;28;20031;-67
2022/12/17 16:49:19;;;;;;;101.32;38.33;;;-3.90;99.90;;;;;;4954019;28;20031;-69
2022/12/17 16:51:51;;;;;;;100.53;38.75;;;-3.90;99.90;;;;;;4952500;28;20039;-70
2022/12/17 16:54:20;;;;;;;87.57;38.08;;;-3.90;99.90;;;;;;4955812;28;20082;-75
2022/12/17 16:56:46;;;;;;;92.38;36.88;;;-3.90;99.90;;;;;;4957097;28;20368;-75
2022/12/17 16:59:14;;;;;;;93.68;36.88;;;-3.90;99.90;;;;;;4951097;28;20435;-75
2022/12/17 17:01:43;;;;;;;87.72;34.65;;;-4.00;99.90;;;;;;4951023;28;20111;-74
2022/12/17 17:04:10;;;;;;;77.72;31.92;;;-4.00;99.90;;;;;;4951474;28;20118;-76
2022/12/17 17:06:40;;;;;;;87.75;35.40;;;-4.10;99.90;;;;;;4953386;28;20035;-75
2022/12/17 17:09:07;;;;;;;90.80;35.42;;;-4.10;99.90;;;;;;4948877;29;20034;-75
2022/12/17 17:11:33;;;;;;;86.35;33.88;;;-4.10;99.90;;;;;;4967658;28;20046;-72
2022/12/17 17:13:58;;;;;;;105.03;39.83;;;-4.20;99.90;;;;;;4949054;28;20023;-74
2022/12/17 17:16:32;;;;;;;105.28;41.38;;;-4.20;99.90;;;;;;4952625;28;20033;-74
2022/12/17 17:19:00;;;;;;;178.80;65.07;;;-4.30;99.90;;;;;;4969550;28;20111;-76
2022/12/17 17:21:35;;;;;;;117.70;44.80;;;-4.30;99.90;;;;;;4951485;28;20031;-75
2022/12/17 17:24:16;;;;;;;88.55;36.05;;;-4.40;99.90;;;;;;4953588;29;20106;-74
2022/12/17 17:26:42;;;;;;;83.07;34.05;;;-4.50;99.90;;;;;;4953690;28;20484;-75
2022/12/17 17:29:09;;;;;;;97.32;38.13;;;-4.50;99.90;;;;;;4954285;28;20028;-74
2022/12/17 17:31:35;;;;;;;106.30;39.42;;;-4.60;99.90;;;;;;4953371;29;20027;-75
2022/12/17 17:34:11;;;;;;;98.28;38.53;;;-4.60;99.90;;;;;;4954069;28;20028;-74
2022/12/17 17:36:40;;;;;;;94.32;36.92;;;-4.60;99.90;;;;;;4949924;28;20029;-76
2022/12/17 17:39:06;;;;;;;104.72;40.58;;;-4.70;99.90;;;;;;4953071;28;20034;-76
2022/12/17 17:41:34;;;;;;;113.38;41.85;;;-4.70;99.90;;;;;;4953106;28;20023;-75
2022/12/17 17:44:20;;;;;;;97.85;36.90;;;-4.80;99.90;;;;;;4951127;29;20421;-74
2022/12/17 17:46:45;;;;;;;102.00;40.03;;;-4.90;99.90;;;;;;4951769;28;20047;-74
2022/12/17 17:49:11;;;;;;;92.53;36.10;;;-4.90;99.90;;;;;;4951982;28;20038;-74
2022/12/17 17:51:40;;;;;;;89.50;36.00;;;-4.90;99.90;;;;;;4950609;28;20082;-75
2022/12/17 17:54:06;;;;;;;92.50;35.22;;;-4.90;99.90;;;;;;4954494;28;20019;-74
2022/12/17 17:56:34;;;;;;;85.75;34.55;;;-4.90;99.90;;;;;;4948324;28;20035;-75
2022/12/17 17:59:03;;;;;;;89.05;36.75;;;-4.90;99.90;;;;;;4952965;28;20027;-75
2022/12/17 18:01:40;;;;;;;85.63;35.72;;;-4.90;99.90;;;;;;4953878;28;20500;-75
2022/12/17 18:04:14;;;;;;;85.70;33.45;;;-4.90;99.90;;;;;;4971275;28;20107;-74
2022/12/17 18:06:45;;;;;;;83.20;34.55;;;-4.80;99.90;;;;;;4949882;28;20392;-74
2022/12/17 18:09:16;;;;;;;88.85;34.92;;;-4.80;99.90;;;;;;4949592;29;20065;-74
2022/12/17 18:11:43;;;;;;;95.13;36.63;;;-4.80;99.90;;;;;;4952769;28;20042;-74
2022/12/17 18:14:11;;;;;;;108.03;39.20;;;-4.80;99.90;;;;;;4952550;28;20015;-74
2022/12/17 18:16:44;;;;;;;98.22;36.95;;;-4.80;99.90;;;;;;4953961;28;20035;-75
2022/12/17 18:19:19;;;;;;;94.50;36.00;;;-4.80;99.90;;;;;;4949262;28;20023;-75
2022/12/17 18:21:46;;;;;;;94.57;37.22;;;-4.80;99.90;;;;;;4920529;28;20133;-74
2022/12/17 18:24:26;;;;;;;103.15;39.42;;;-4.80;99.90;;;;;;4976675;28;20039;-74
2022/12/17 18:26:55;;;;;;;95.03;36.42;;;-4.80;99.90;;;;;;4972711;28;20495;-75
2022/12/17 18:29:23;;;;;;;103.07;42.55;;;-4.80;99.90;;;;;;4974009;28;20502;-74
2022/12/17 18:31:49;;;;;;;96.28;37.90;;;-4.80;99.90;;;;;;4972963;28;20495;-74
2022/12/17 18:34:17;;;;;;;98.95;36.42;;;-4.70;99.90;;;;;;4973029;28;20404;-75
2022/12/17 18:36:44;;;;;;;100.72;37.63;;;-4.70;99.90;;;;;;4973139;28;20019;-75
2022/12/17 18:39:19;;;;;;;95.85;37.38;;;-4.70;99.90;;;;;;4975526;28;20372;-75
2022/12/17 18:44:31;;;;;;;93.78;36.70;;;-4.70;99.90;;;;;;4972653;28;20773;-75
2022/12/17 18:46:57;;;;;;;92.30;37.42;;;-4.60;99.90;;;;;;4974921;28;20034;-74
2022/12/17 18:49:25;;;;;;;90.82;37.70;;;-4.60;99.90;;;;;;4973135;28;20034;-74
2022/12/17 18:51:51;;;;;;;101.38;38.25;;;-4.60;99.90;;;;;;4971543;28;20031;-75
2022/12/17 18:54:24;;;;;;;113.13;44.15;;;-4.60;99.90;;;;;;4972533;28;20409;-74
2022/12/17 18:56:53;;;;;;;108.32;40.53;;;-4.60;99.90;;;;;;4966956;28;20045;-74
2022/12/17 18:59:21;;;;;;;102.75;39.15;;;-4.60;99.90;;;;;;4981870;28;20538;-74
2022/12/17 19:01:47;;;;;;;101.47;40.45;;;-4.60;99.90;;;;;;4983834;28;20027;-72
2022/12/17 19:04:17;;;;;;;99.80;39.20;;;-4.60;99.90;;;;;;4968211;28;20034;-73
2022/12/17 19:06:47;;;;;;;99.05;38.55;;;-4.60;99.90;;;;;;4971309;28;20038;-74
2022/12/17 19:09:26;;;;;;;99.93;38.75;;;-4.60;99.90;;;;;;4967724;28;20431;-74
2022/12/17 19:11:53;;;;;;;96.28;37.55;;;-4.60;99.90;;;;;;4970175;28;20073;-74
2022/12/17 19:14:21;;;;;;;84.20;34.95;;;-4.70;99.90;;;;;;4968478;28;20091;-74
2022/12/17 19:16:48;;;;;;;89.22;35.10;;;-4.70;99.90;;;;;;4966676;28;20070;-73
2022/12/17 19:19:13;;;;;;;93.20;34.65;;;-4.80;99.90;;;;;;4967825;28;20035;-74
2022/12/17 19:21:40;;;;;;;82.40;34.45;;;-4.80;99.90;;;;;;4973332;28;20046;-73
2022/12/17 19:24:07;;;;;;;93.28;35.45;;;-4.90;99.90;;;;;;4984100;28;20505;-74
2022/12/17 19:26:34;;;;;;;93.18;35.10;;;-4.90;99.90;;;;;;4972154;28;20030;-74
2022/12/17 19:29:00;;;;;;;88.97;33.15;;;-4.90;99.90;;;;;;4970919;28;20029;-74
2022/12/17 19:31:30;;;;;;;89.00;34.53;;;-4.90;99.90;;;;;;4969746;28;20042;-73
2022/12/17 19:34:01;;;;;;;83.65;33.70;;;-5.00;99.90;;;;;;4964979;28;20031;-74
2022/12/17 19:36:29;;;;;;;81.18;33.55;;;-5.00;99.90;;;;;;4970335;28;20114;-73
2022/12/17 19:38:58;;;;;;;87.20;35.15;;;-5.00;99.90;;;;;;4969809;28;20027;-73
2022/12/17 19:41:25;;;;;;;93.82;35.35;;;-5.10;99.90;;;;;;4970578;28;20523;-73
2022/12/17 19:43:56;;;;;;;86.30;35.45;;;-5.10;99.90;;;;;;4986078;28;20078;-74
2022/12/17 19:46:22;;;;;;;85.65;33.42;;;-5.20;99.90;;;;;;4971355;28;20320;-73
2022/12/17 19:48:49;;;;;;;91.65;35.45;;;-5.20;99.90;;;;;;4970201;28;20034;-73
2022/12/17 19:51:17;;;;;;;83.18;34.33;;;-5.30;99.90;;;;;;4973357;28;20045;-73
2022/12/17 19:53:44;;;;;;;90.25;34.63;;;-5.30;99.90;;;;;;4987788;28;20039;-73
2022/12/17 19:56:12;;;;;;;81.97;31.20;;;-5.30;99.90;;;;;;4985447;28;20073;-74
2022/12/17 19:58:41;;;;;;;75.50;31.30;;;-5.40;99.90;;;;;;4971725;28;20054;-73
2022/12/17 20:01:12;;;;;;;78.40;31.23;;;-5.40;99.90;;;;;;4968651;28;20054;-73
2022/12/17 20:03:39;;;;;;;82.13;32.58;;;-5.40;99.90;;;;;;4968914;28;20035;-74
2022/12/17 20:06:10;;;;;;;76.80;31.52;;;-5.50;99.90;;;;;;4975313;28;20041;-74
2022/12/17 20:08:35;;;;;;;80.50;31.90;;;-5.60;99.90;;;;;;4971869;28;20023;-73
2022/12/17 20:11:03;;;;;;;90.20;33.90;;;-5.60;99.90;;;;;;4974460;28;20081;-74
2022/12/17 20:13:29;;;;;;;86.55;33.50;;;-5.60;99.90;;;;;;4971191;28;20042;-74
2022/12/17 20:16:01;;;;;;;94.05;35.13;;;-5.70;99.90;;;;;;4973943;28;20026;-74
2022/12/17 20:18:27;;;;;;;85.78;34.28;;;-5.70;99.90;;;;;;4974745;28;20027;-74
2022/12/17 20:21:04;;;;;;;92.13;34.95;;;-5.70;99.90;;;;;;4968210;28;20109;-74
2022/12/17 20:23:30;;;;;;;88.50;34.28;;;-5.70;99.90;;;;;;4986554;28;20549;-73
2022/12/17 20:26:04;;;;;;;79.55;33.72;;;-5.80;99.90;;;;;;4972517;28;20086;-73
2022/12/17 20:28:30;;;;;;;83.35;33.22;;;-5.80;99.90;;;;;;4967137;28;20031;-74
2022/12/17 20:30:56;;;;;;;93.60;37.03;;;-5.90;99.90;;;;;;4983975;28;20034;-73
2022/12/17 20:33:22;;;;;;;93.50;34.00;;;-5.90;99.90;;;;;;4973021;28;20030;-74
2022/12/17 20:35:50;;;;;;;87.28;32.80;;;-5.90;99.90;;;;;;4970765;28;20050;-74
2022/12/17 20:38:16;;;;;;;100.13;37.80;;;-5.90;99.90;;;;;;4968521;28;20034;-74
2022/12/17 20:40:42;;;;;;;91.30;34.28;;;-5.90;99.90;;;;;;4971241;28;20027;-75
2022/12/17 20:43:11;;;;;;;93.32;34.90;;;-5.90;99.90;;;;;;4974783;28;20030;-74
2022/12/17 20:45:46;;;;;;;93.55;35.00;;;-5.90;99.90;;;;;;4970261;28;20027;-74
2022/12/17 20:48:17;;;;;;;93.65;35.28;;;-5.90;99.90;;;;;;4973258;28;20034;-74
2022/12/17 20:50:44;;;;;;;95.68;37.08;;;-6.00;99.90;;;;;;4985165;28;20047;-74
2022/12/17 20:53:10;;;;;;;98.07;35.72;;;-6.00;99.90;;;;;;4967501;28;20034;-74
2022/12/17 20:55:35;;;;;;;91.72;34.38;;;-6.10;99.90;;;;;;4971527;28;20034;-74
2022/12/17 20:58:01;;;;;;;95.93;34.78;;;-6.10;99.90;;;;;;4973633;28;20503;-73
2022/12/17 21:00:52;;;;;;;97.75;37.10;;;-6.20;99.90;;;;;;4971915;28;20510;-74
2022/12/17 21:03:17;;;;;;;88.43;36.15;;;-6.30;99.90;;;;;;4983581;28;20038;-75
2022/12/17 21:05:43;;;;;;;89.07;33.78;;;-6.30;99.90;;;;;;4971101;28;20534;-74
2022/12/17 21:08:09;;;;;;;88.10;31.85;;;-6.30;99.90;;;;;;4970273;28;20038;-74
2022/12/17 21:10:34;;;;;;;93.82;32.35;;;-6.40;99.90;;;;;;4973625;28;20035;-74
2022/12/17 21:15:49;;;;;;;69.95;28.35;;;-6.40;99.90;;;;;;4968548;28;20041;-73
2022/12/17 21:18:14;;;;;;;77.38;30.58;;;-6.50;99.90;;;;;;4972599;28;20023;-74
2022/12/17 21:20:52;;;;;;;67.13;26.75;;;-6.60;99.90;;;;;;4968931;28;20452;-73
2022/12/17 21:23:17;;;;;;;67.55;27.50;;;-6.60;99.90;;;;;;4985594;28;20062;-73
2022/12/17 21:25:46;;;;;;;71.07;28.95;;;-6.70;99.90;;;;;;4971148;28;20455;-74
2022/12/17 21:28:12;;;;;;;74.93;28.30;;;-6.70;99.90;;;;;;4972146;28;20554;-74
2022/12/17 21:30:38;;;;;;;71.38;28.63;;;-6.70;99.90;;;;;;4972719;28;20034;-74
2022/12/17 21:33:04;;;;;;;73.38;26.42;;;-6.70;99.90;;;;;;4968206;28;20046;-74
2022/12/17 21:35:29;;;;;;;73.82;27.77;;;-6.70;99.90;;;;;;4968178;28;20061;-74
2022/12/17 21:37:55;;;;;;;61.53;25.58;;;-6.70;99.90;;;;;;4970794;28;20030;-74
2022/12/17 21:40:23;;;;;;;79.45;29.15;;;-6.70;99.90;;;;;;4969958;28;20026;-74
2022/12/17 21:43:01;;;;;;;75.63;28.35;;;-6.80;99.90;;;;;;4982374;28;20476;-75
2022/12/17 21:45:32;;;;;;;75.63;28.33;;;-6.80;99.90;;;;;;4970739;28;20160;-74
2022/12/17 21:48:02;;;;;;;71.72;29.00;;;-6.80;99.90;;;;;;4973351;28;20031;-74
2022/12/17 21:50:31;;;;;;;72.45;28.77;;;-6.90;99.90;;;;;;4972351;28;20086;-74
2022/12/17 21:53:03;;;;;;;66.95;27.83;;;-6.80;99.90;;;;;;4973155;28;20050;-74
2022/12/17 21:55:31;;;;;;;75.28;29.02;;;-6.90;99.90;;;;;;4968085;28;20031;-74
2022/12/17 21:57:57;;;;;;;68.47;27.15;;;-6.90;99.90;;;;;;4974818;28;20031;-74
2022/12/17 22:00:23;;;;;;;67.78;26.45;;;-6.90;99.90;;;;;;4989593;28;20034;-74
2022/12/17 22:02:52;;;;;;;75.13;29.27;;;-6.90;99.90;;;;;;4970009;28;20117;-75
2022/12/17 22:05:20;;;;;;;71.55;27.92;;;-7.00;99.90;;;;;;4971382;28;20162;-74
2022/12/17 22:07:46;;;;;;;70.05;28.17;;;-7.00;99.90;;;;;;4971930;28;20154;-75
2022/12/17 22:10:12;;;;;;;68.30;27.45;;;-7.00;99.90;;;;;;4970920;28;20728;-74
2022/12/17 22:15:22;;;;;;;76.72;29.60;;;-7.10;99.90;;;;;;4970163;28;20077;-74
2022/12/17 22:17:48;;;;;;;64.75;28.20;;;-7.00;99.90;;;;;;4970499;28;20019;-74
2022/12/17 22:20:17;;;;;;;71.20;28.50;;;-7.00;99.90;;;;;;4970539;28;20035;-74
2022/12/17 22:22:44;;;;;;;79.55;28.75;;;-7.00;99.90;;;;;;4971023;28;20455;-74
2022/12/17 22:25:11;;;;;;;73.18;28.58;;;-7.00;99.90;;;;;;4969454;28;20031;-75
2022/12/17 22:27:37;;;;;;;72.32;27.75;;;-7.00;99.90;;;;;;4972575;28;20053;-75
2022/12/17 22:33:04;;;;;;;70.70;27.58;;;-7.10;99.90;;;;;;4972588;28;20096;-74
2022/12/17 22:35:35;;;;;;;74.00;28.13;;;-7.10;99.90;;;;;;4968404;28;20129;-75
2022/12/17 22:38:03;;;;;;;73.65;27.65;;;-7.20;99.90;;;;;;4968863;28;20051;-74
2022/12/17 22:40:30;;;;;;;80.03;28.52;;;-7.20;99.90;;;;;;4985272;28;20516;-74
2022/12/17 22:45:40;;;;;;;69.85;27.98;;;-7.30;99.90;;;;;;4968620;28;20037;-74
2022/12/17 22:48:11;;;;;;;74.88;27.70;;;-7.30;99.90;;;;;;4986482;28;20030;-74
2022/12/17 22:50:37;;;;;;;79.93;28.80;;;-7.30;99.90;;;;;;4983253;28;20038;-75
2022/12/17 22:53:12;;;;;;;70.57;28.48;;;-7.40;99.90;;;;;;4967916;28;20102;-74
2022/12/17 22:55:40;;;;;;;68.13;25.95;;;-7.40;99.90;;;;;;4966804;28;20047;-74
2022/12/17 22:58:06;;;;;;;79.65;28.60;;;-7.50;99.90;;;;;;4981433;28;20026;-74
2022/12/17 23:00:34;;;;;;;67.50;26.35;;;-7.50;99.90;;;;;;4972541;28;20110;-74
2022/12/17 23:03:01;;;;;;;71.70;27.20;;;-7.50;99.90;;;;;;4984821;28;20692;-74
2022/12/17 23:05:27;;;;;;;71.90;29.35;;;-7.60;99.90;;;;;;4966652;28;20094;-75
2022/12/17 23:07:54;;;;;;;72.03;27.48;;;-7.60;99.90;;;;;;4969429;28;20126;-74
2022/12/17 23:10:27;;;;;;;72.47;27.08;;;-7.60;99.90;;;;;;4980912;28;20444;-74
2022/12/17 23:12:54;;;;;;;69.05;25.70;;;-7.60;99.90;;;;;;4986371;28;20560;-74
2022/12/17 23:15:31;;;;;;;69.90;26.95;;;-7.60;99.90;;;;;;4989323;28;20037;-74
2022/12/17 23:17:59;;;;;;;62.10;25.08;;;-7.60;99.90;;;;;;4974262;28;20030;-75
2022/12/17 23:20:26;;;;;;;76.68;27.73;;;-7.60;99.90;;;;;;4972818;28;20034;-75
2022/12/17 23:22:52;;;;;;;69.38;26.92;;;-7.60;99.90;;;;;;4971404;28;20042;-74
2022/12/17 23:25:18;;;;;;;71.25;24.88;;;-7.70;99.90;;;;;;4971806;28;20035;-74
2022/12/17 23:27:45;;;;;;;61.10;24.10;;;-7.70;99.90;;;;;;4972453;28;20023;-74
2022/12/17 23:30:12;;;;;;;65.68;24.58;;;-7.70;99.90;;;;;;4975116;28;20039;-73
2022/12/17 23:32:39;;;;;;;63.72;25.67;;;-7.70;99.90;;;;;;4972123;28;20472;-73
2022/12/17 23:35:05;;;;;;;72.82;26.70;;;-7.70;99.90;;;;;;4973330;28;20027;-74
2022/12/17 23:37:34;;;;;;;67.13;23.98;;;-7.70;99.90;;;;;;4988185;28;20042;-74
2022/12/17 23:40:03;;;;;;;61.72;24.05;;;-7.70;99.90;;;;;;4975728;28;20375;-74
2022/12/17 23:42:32;;;;;;;63.28;24.38;;;-7.70;99.90;;;;;;4976474;28;20610;-74
2022/12/17 23:44:57;;;;;;;60.92;24.20;;;-7.70;99.90;;;;;;4973557;28;20034;-74
2022/12/17 23:47:26;;;;;;;58.17;24.15;;;-7.60;99.90;;;;;;4973397;28;20109;-74
2022/12/17 23:49:54;;;;;;;61.88;24.92;;;-7.70;99.90;;;;;;4974799;28;20551;-74
2022/12/17 23:52:23;;;;;;;62.30;23.83;;;-7.70;99.90;;;;;;4987363;28;20041;-73
2022/12/17 23:54:49;;;;;;;60.00;23.85;;;-7.80;99.90;;;;;;4976287;28;20486;-74
2022/12/17 23:57:15;;;;;;;66.03;24.83;;;-7.90;99.90;;;;;;4968364;28;20019;-73
2022/12/17 23:59:40;;;;;;;62.17;24.08;;;-7.90;99.90;;;;;;4973492;28;20403;-73
